createdAt,value
2023-03-05T00:02:14.154Z,2.63
2023-03-05T00:04:41.154Z,2.61
2023-03-05T00:07:12.363Z,2.61
2023-03-05T00:09:39.444Z,2.59
2023-03-05T00:12:09.017Z,2.57
2023-03-05T00:14:35.951Z,2.58
2023-03-05T00:17:03.127Z,2.57
2023-03-05T00:19:30.633Z,2.61
2023-03-05T00:22:00.258Z,2.60
2023-03-05T00:24:27.142Z,2.59
2023-03-05T00:26:54.844Z,2.59
2023-03-05T00:29:23.008Z,2.61
2023-03-05T00:31:50.467Z,2.62
2023-03-05T00:34:19.172Z,2.62
2023-03-05T00:36:53.434Z,2.59
2023-03-05T00:39:21.014Z,2.57
2023-03-05T00:41:48.843Z,2.58
2023-03-05T00:44:15.754Z,2.56
2023-03-05T00:46:43.290Z,2.58
2023-03-05T00:49:12.577Z,2.62
2023-03-05T00:51:40.980Z,2.63
2023-03-05T00:54:07.825Z,2.63
2023-03-05T00:56:35.102Z,2.64
2023-03-05T00:59:02.334Z,2.65
2023-03-05T01:01:29.850Z,2.69
2023-03-05T01:03:57.601Z,2.69
2023-03-05T01:06:27.164Z,2.66
2023-03-05T01:08:54.593Z,2.69
2023-03-05T01:11:22.147Z,2.71
2023-03-05T01:13:49.139Z,2.73
2023-03-05T01:16:16.699Z,2.74
2023-03-05T01:18:43.649Z,2.72
2023-03-05T01:21:11.154Z,2.73
2023-03-05T01:23:38.235Z,2.76
2023-03-05T01:26:05.756Z,2.75
2023-03-05T01:28:35.484Z,2.76
2023-03-05T01:31:02.753Z,2.80
2023-03-05T01:33:29.672Z,2.74
2023-03-05T01:35:56.941Z,2.76
2023-03-05T01:38:24.051Z,2.74
2023-03-05T01:40:51.284Z,2.74
2023-03-05T01:43:23.582Z,2.77
2023-03-05T01:46:09.670Z,2.76
2023-03-05T01:48:36.618Z,2.72
2023-03-05T01:51:03.985Z,2.79
2023-03-05T01:53:31.231Z,2.74
2023-03-05T01:55:58.559Z,2.77
2023-03-05T01:58:25.541Z,2.76
2023-03-05T02:00:53.770Z,2.72
2023-03-05T02:03:22.798Z,2.73
2023-03-05T02:05:50.322Z,2.74
2023-03-05T02:08:18.614Z,2.73
2023-03-05T02:10:48.117Z,2.73
2023-03-05T02:13:19.093Z,2.74
2023-03-05T02:15:47.738Z,2.75
2023-03-05T02:18:14.668Z,2.76
2023-03-05T02:20:56.968Z,2.74
2023-03-05T02:23:29.087Z,2.73
2023-03-05T02:25:56.679Z,2.71
2023-03-05T02:28:30.509Z,2.71
2023-03-05T02:30:59.880Z,2.69
2023-03-05T02:33:26.968Z,2.73
2023-03-05T02:35:54.256Z,2.69
2023-03-05T02:38:22.672Z,2.70
2023-03-05T02:40:52.284Z,2.72
2023-03-05T02:43:21.602Z,2.73
2023-03-05T02:45:48.855Z,2.71
2023-03-05T02:48:16.585Z,2.72
2023-03-05T02:50:45.048Z,2.70
2023-03-05T02:53:15.438Z,2.70
2023-03-05T02:55:46.075Z,2.71
2023-03-05T02:58:12.896Z,2.69
2023-03-05T03:00:42.848Z,2.72
2023-03-05T03:03:11.661Z,2.76
2023-03-05T03:05:38.823Z,2.77
2023-03-05T03:08:05.847Z,2.77
2023-03-05T03:10:33.351Z,2.79
2023-03-05T03:13:00.443Z,2.79
2023-03-05T03:15:27.664Z,2.79
2023-03-05T03:17:54.983Z,2.81
2023-03-05T03:20:22.611Z,2.82
2023-03-05T03:22:49.531Z,2.80
2023-03-05T03:25:18.325Z,2.79
2023-03-05T03:27:45.217Z,2.78
2023-03-05T03:30:13.711Z,2.80
2023-03-05T03:32:40.625Z,2.82
2023-03-05T03:35:08.101Z,2.83
2023-03-05T03:37:35.194Z,2.79
2023-03-05T03:40:02.415Z,2.82
2023-03-05T03:42:31.614Z,2.78
2023-03-05T03:45:02.575Z,2.78
2023-03-05T03:47:30.429Z,2.76
2023-03-05T03:49:58.862Z,2.79
2023-03-05T03:52:26.534Z,2.77
2023-03-05T03:54:55.843Z,2.76
2023-03-05T03:57:23.100Z,2.73
2023-03-05T03:59:51.208Z,2.76
2023-03-05T04:02:18.311Z,2.71
2023-03-05T04:04:45.647Z,2.69
2023-03-05T04:07:12.706Z,2.68
2023-03-05T04:09:40.349Z,2.67
2023-03-05T04:12:07.338Z,2.65
2023-03-05T04:14:34.601Z,2.69
2023-03-05T04:17:01.495Z,2.66
2023-03-05T04:19:31.051Z,2.66
2023-03-05T04:21:58.881Z,2.65
2023-03-05T04:24:26.200Z,2.63
2023-03-05T04:26:53.140Z,2.61
2023-03-05T04:29:22.838Z,2.62
2023-03-05T04:31:49.752Z,2.58
2023-03-05T04:34:16.944Z,2.60
2023-03-05T04:36:44.777Z,2.62
2023-03-05T04:39:12.051Z,2.62
2023-03-05T04:41:38.985Z,2.61
2023-03-05T04:44:06.676Z,2.62
2023-03-05T04:46:33.562Z,2.62
2023-03-05T04:49:01.038Z,2.65
2023-03-05T04:51:27.933Z,2.67
2023-03-05T04:53:57.801Z,2.67
2023-03-05T04:56:24.869Z,2.65
2023-03-05T04:58:52.453Z,2.63
2023-03-05T05:01:19.493Z,2.68
2023-03-05T05:03:47.012Z,2.66
2023-03-05T05:06:14.129Z,2.67
2023-03-05T05:08:41.359Z,2.67
2023-03-05T05:11:08.474Z,2.67
2023-03-05T05:13:35.649Z,2.66
2023-03-05T05:16:02.757Z,2.66
2023-03-05T05:18:30.044Z,2.69
2023-03-05T05:20:56.939Z,2.66
2023-03-05T05:23:24.294Z,2.68
2023-03-05T05:25:58.158Z,2.67
2023-03-05T05:28:27.846Z,2.70
2023-03-05T05:30:55.045Z,2.73
2023-03-05T05:33:22.938Z,2.73
2023-03-05T05:35:50.352Z,2.71
2023-03-05T05:38:17.704Z,2.70
2023-03-05T05:40:44.692Z,2.77
2023-03-05T05:43:11.877Z,2.77
2023-03-05T05:45:39.005Z,2.74
2023-03-05T05:48:06.672Z,2.76
2023-03-05T05:50:33.574Z,2.76
2023-03-05T05:53:00.771Z,2.72
2023-03-05T05:55:27.796Z,2.76
2023-03-05T05:57:55.049Z,2.79
2023-03-05T06:00:22.213Z,2.77
2023-03-05T06:02:49.743Z,2.77
2023-03-05T06:05:16.656Z,2.76
2023-03-05T06:07:43.914Z,2.77
2023-03-05T06:10:11.215Z,2.77
2023-03-05T06:12:38.595Z,2.79
2023-03-05T06:15:08.364Z,2.82
2023-03-05T06:17:35.749Z,2.85
2023-03-05T06:20:04.573Z,2.83
2023-03-05T06:22:31.746Z,2.82
2023-03-05T06:24:58.607Z,2.84
2023-03-05T06:27:26.213Z,2.85
2023-03-05T06:29:54.382Z,2.93
2023-03-05T06:32:21.666Z,2.90
2023-03-05T06:34:48.849Z,2.95
2023-03-05T06:37:16.121Z,2.95
2023-03-05T06:39:43.202Z,2.98
2023-03-05T06:42:10.568Z,2.98
2023-03-05T06:44:41.030Z,2.98
2023-03-05T06:47:10.601Z,3.01
2023-03-05T06:49:38.293Z,3.02
2023-03-05T06:52:06.371Z,3.09
2023-03-05T06:54:33.362Z,3.08
2023-03-05T06:57:00.819Z,3.13
2023-03-05T06:59:27.676Z,3.12
2023-03-05T07:01:57.448Z,3.15
2023-03-05T07:04:24.909Z,3.15
2023-03-05T07:06:52.130Z,3.20
2023-03-05T07:09:18.995Z,3.18
2023-03-05T07:11:46.248Z,3.20
2023-03-05T07:14:15.616Z,3.21
2023-03-05T07:16:42.915Z,3.33
2023-03-05T07:19:11.147Z,3.36
2023-03-05T07:21:40.029Z,3.46
2023-03-05T07:24:08.133Z,3.60
2023-03-05T07:26:35.562Z,3.66
2023-03-05T07:29:03.084Z,3.73
2023-03-05T07:31:33.329Z,3.78
2023-03-05T07:34:01.562Z,3.76
2023-03-05T07:36:29.020Z,3.78
2023-03-05T07:38:56.036Z,3.77
2023-03-05T07:41:23.833Z,3.73
2023-03-05T07:43:52.654Z,3.76
2023-03-05T07:46:21.691Z,3.74
2023-03-05T07:48:48.806Z,3.72
2023-03-05T07:51:17.491Z,3.73
2023-03-05T07:53:45.079Z,3.78
2023-03-05T07:56:12.654Z,3.84
2023-03-05T07:58:39.870Z,3.84
2023-03-05T08:01:13.414Z,3.86
2023-03-05T08:03:41.091Z,3.89
2023-03-05T08:06:11.688Z,3.95
2023-03-05T08:08:40.636Z,4.01
2023-03-05T08:11:12.635Z,4.11
2023-03-05T08:13:40.073Z,4.15
2023-03-05T08:16:18.013Z,4.13
2023-03-05T08:18:45.496Z,4.09
2023-03-05T08:21:22.724Z,4.09
2023-03-05T08:23:49.739Z,4.07
2023-03-05T08:26:18.285Z,4.15
2023-03-05T08:28:45.214Z,4.26
2023-03-05T08:31:13.385Z,4.23
2023-03-05T08:33:40.551Z,4.26
2023-03-05T08:36:11.792Z,4.34
2023-03-05T08:38:43.447Z,4.44
2023-03-05T08:41:10.793Z,4.44
2023-03-05T08:43:41.075Z,4.42
2023-03-05T08:46:08.819Z,4.50
2023-03-05T08:48:35.991Z,4.59
2023-03-05T08:51:29.666Z,4.54
2023-03-05T08:53:59.084Z,4.58
2023-03-05T08:56:28.596Z,4.62
2023-03-05T08:58:55.579Z,4.65
2023-03-05T09:01:24.176Z,4.68
2023-03-05T09:03:54.364Z,4.60
2023-03-05T09:06:21.687Z,4.66
2023-03-05T09:08:48.665Z,4.99
2023-03-05T09:11:16.085Z,5.07
2023-03-05T09:13:43.035Z,5.11
2023-03-05T09:16:15.234Z,5.03
2023-03-05T09:18:42.513Z,5.35
2023-03-05T09:21:11.840Z,5.48
2023-03-05T09:23:39.217Z,5.57
2023-03-05T09:26:07.995Z,5.70
2023-03-05T09:28:34.977Z,5.73
2023-03-05T09:31:03.956Z,5.67
2023-03-05T09:33:31.880Z,5.79
2023-03-05T09:35:59.563Z,5.94
2023-03-05T09:38:26.732Z,6.12
2023-03-05T09:41:07.752Z,6.33
2023-03-05T09:43:39.777Z,6.46
2023-03-05T09:46:24.943Z,6.37
2023-03-05T09:48:58.455Z,6.37
2023-03-05T09:51:28.466Z,6.28
2023-03-05T09:54:03.474Z,6.28
2023-03-05T09:56:41.483Z,6.31
2023-03-05T09:59:31.186Z,6.40
2023-03-05T10:02:12.864Z,6.45
2023-03-05T10:04:45.907Z,6.49
2023-03-05T10:07:22.238Z,6.65
2023-03-05T10:09:52.036Z,6.87
2023-03-05T10:12:28.496Z,7.07
2023-03-05T10:14:58.291Z,6.93
2023-03-05T10:17:35.615Z,6.78
2023-03-05T10:20:26.071Z,6.47
2023-03-05T10:23:00.010Z,6.28
2023-03-05T10:25:39.504Z,6.09
2023-03-05T10:28:20.156Z,5.92
2023-03-05T10:31:13.113Z,6.03
2023-03-05T10:33:51.878Z,6.28
2023-03-05T10:36:46.224Z,6.38
2023-03-05T10:39:32.744Z,6.55
2023-03-05T10:42:12.014Z,6.71
2023-03-05T10:44:47.531Z,6.84
2023-03-05T10:47:30.343Z,6.98
2023-03-05T10:49:58.725Z,6.95
2023-03-05T10:52:30.191Z,7.04
2023-03-05T10:55:00.105Z,7.17
2023-03-05T10:57:28.390Z,7.26
2023-03-05T11:00:02.354Z,7.18
2023-03-05T11:02:29.789Z,6.78
2023-03-05T11:04:59.864Z,6.40
2023-03-05T11:07:26.897Z,6.22
2023-03-05T11:10:00.324Z,6.15
2023-03-05T11:12:28.944Z,6.07
2023-03-05T11:15:02.455Z,5.89
2023-03-05T11:17:29.396Z,5.78
2023-03-05T11:19:58.027Z,5.76
2023-03-05T11:22:26.046Z,5.64
2023-03-05T11:25:14.865Z,5.55
2023-03-05T11:27:50.652Z,5.50
2023-03-05T11:30:26.257Z,5.45
2023-03-05T11:33:12.600Z,5.43
2023-03-05T11:35:42.371Z,5.35
2023-03-05T11:38:25.010Z,5.36
2023-03-05T11:40:53.870Z,5.33
2023-03-05T11:43:22.124Z,5.30
2023-03-05T11:45:55.139Z,5.19
2023-03-05T11:48:27.479Z,5.12
2023-03-05T11:51:01.445Z,5.07
2023-03-05T11:53:37.317Z,5.04
2023-03-05T11:56:19.245Z,5.04
2023-03-05T11:59:16.103Z,5.04
2023-03-05T12:01:46.342Z,5.02
2023-03-05T12:04:13.741Z,4.98
2023-03-05T12:06:44.582Z,4.99
2023-03-05T12:09:17.958Z,4.98
2023-03-05T12:11:46.073Z,4.99
2023-03-05T12:14:19.904Z,4.94
2023-03-05T12:16:51.500Z,4.86
2023-03-05T12:19:35.837Z,4.77
2023-03-05T12:22:04.698Z,4.74
2023-03-05T12:24:34.224Z,4.69
2023-03-05T12:27:04.653Z,4.63
2023-03-05T12:29:41.583Z,4.63
2023-03-05T12:32:34.341Z,4.60
2023-03-05T12:35:08.678Z,4.63
2023-03-05T12:37:36.043Z,4.60
2023-03-05T12:40:08.854Z,4.59
2023-03-05T12:42:39.500Z,4.59
2023-03-05T12:45:12.884Z,4.57
2023-03-05T12:47:41.358Z,4.56
2023-03-05T12:50:27.080Z,4.54
2023-03-05T12:52:56.103Z,4.60
2023-03-05T12:55:24.615Z,4.59
2023-03-05T12:58:12.081Z,4.71
2023-03-05T13:00:40.107Z,4.75
2023-03-05T13:03:12.254Z,4.79
2023-03-05T13:05:39.528Z,4.83
2023-03-05T13:08:24.326Z,4.84
2023-03-05T13:10:57.485Z,4.92
2023-03-05T13:13:29.739Z,4.91
2023-03-05T13:15:57.985Z,4.88
2023-03-05T13:18:31.535Z,4.81
2023-03-05T13:21:05.129Z,4.69
2023-03-05T13:23:33.734Z,4.64
2023-03-05T13:26:20.766Z,4.66
2023-03-05T13:29:04.272Z,4.66
2023-03-05T13:31:32.163Z,4.65
2023-03-05T13:34:21.237Z,4.65
2023-03-05T13:37:00.423Z,4.70
2023-03-05T13:39:36.002Z,4.68
2023-03-05T13:42:06.302Z,4.71
2023-03-05T13:44:36.841Z,4.75
2023-03-05T13:47:11.294Z,4.81
2023-03-05T13:49:40.545Z,4.89
2023-03-05T13:52:07.903Z,4.98
2023-03-05T13:54:35.983Z,4.96
2023-03-05T13:57:06.127Z,5.08
2023-03-05T13:59:35.246Z,5.00
2023-03-05T14:02:16.084Z,4.89
2023-03-05T14:04:44.997Z,4.93
2023-03-05T14:07:25.139Z,4.88
2023-03-05T14:09:52.896Z,4.87
2023-03-05T14:12:35.559Z,4.85
2023-03-05T14:15:07.081Z,4.83
2023-03-05T14:17:42.400Z,4.84
2023-03-05T14:20:12.071Z,4.91
2023-03-05T14:22:41.491Z,4.91
2023-03-05T14:25:30.253Z,4.87
2023-03-05T14:27:58.402Z,4.91
2023-03-05T14:30:27.329Z,4.89
2023-03-05T14:32:57.850Z,4.85
2023-03-05T14:35:27.342Z,4.84
2023-03-05T14:37:57.559Z,4.89
2023-03-05T14:40:34.677Z,4.88
2023-03-05T14:43:11.232Z,4.90
2023-03-05T14:45:40.484Z,4.82
2023-03-05T14:48:09.385Z,4.80
2023-03-05T14:50:45.188Z,4.79
2023-03-05T14:53:16.456Z,4.86
2023-03-05T14:55:49.269Z,4.84
2023-03-05T14:58:22.950Z,4.82
2023-03-05T15:00:51.992Z,4.85
2023-03-05T15:03:22.892Z,4.84
2023-03-05T15:05:54.489Z,4.88
2023-03-05T15:08:30.456Z,4.87
2023-03-05T15:10:59.219Z,4.89
2023-03-05T15:13:26.991Z,4.88
2023-03-05T15:15:55.997Z,4.90
2023-03-05T15:18:24.836Z,4.88
2023-03-05T15:20:53.567Z,4.85
2023-03-05T15:23:24.820Z,4.81
2023-03-05T15:25:58.163Z,4.80
2023-03-05T15:28:25.481Z,4.77
2023-03-05T15:30:53.987Z,4.75
2023-03-05T15:33:23.573Z,4.74
2023-03-05T15:35:51.997Z,4.73
2023-03-05T15:38:20.023Z,4.69
2023-03-05T15:40:51.490Z,4.71
2023-03-05T15:43:20.219Z,4.67
2023-03-05T15:45:48.413Z,4.69
2023-03-05T15:48:16.429Z,4.59
2023-03-05T15:50:45.420Z,4.57
2023-03-05T15:53:16.117Z,4.59
2023-03-05T15:55:47.945Z,4.57
2023-03-05T15:58:17.254Z,4.54
2023-03-05T16:00:47.950Z,4.53
2023-03-05T16:03:15.777Z,4.47
2023-03-05T16:05:44.859Z,4.47
2023-03-05T16:08:13.510Z,4.48
2023-03-05T16:10:42.112Z,4.46
2023-03-05T16:13:15.636Z,4.42
2023-03-05T16:15:44.543Z,4.40
2023-03-05T16:18:14.752Z,4.40
2023-03-05T16:20:43.457Z,4.37
2023-03-05T16:23:11.535Z,4.33
2023-03-05T16:25:44.914Z,4.36
2023-03-05T16:28:12.904Z,4.36
2023-03-05T16:30:44.072Z,4.36
2023-03-05T16:33:11.820Z,4.29
2023-03-05T16:35:41.582Z,4.29
2023-03-05T16:38:09.898Z,4.26
2023-03-05T16:41:06.342Z,4.22
2023-03-05T16:43:26.062Z,4.24
2023-03-05T16:45:54.272Z,4.20
2023-03-05T16:48:24.209Z,4.24
2023-03-05T16:50:52.280Z,4.17
2023-03-05T16:53:20.772Z,4.12
2023-03-05T16:55:49.124Z,4.08
2023-03-05T16:58:20.347Z,4.07
2023-03-05T17:00:49.896Z,4.05
2023-03-05T17:03:18.352Z,4.06
2023-03-05T17:05:48.745Z,4.05
2023-03-05T17:08:17.485Z,4.09
2023-03-05T17:10:45.956Z,4.08
2023-03-05T17:13:14.047Z,4.04
2023-03-05T17:18:12.914Z,3.97
2023-03-05T17:20:41.389Z,3.96
2023-03-05T17:23:10.283Z,3.95
2023-03-05T17:25:39.180Z,3.91
2023-03-05T17:28:06.663Z,3.89
2023-03-05T17:30:37.541Z,3.88
2023-03-05T17:33:09.078Z,3.86
2023-03-05T17:35:39.798Z,3.84
2023-03-05T17:38:11.507Z,3.85
2023-03-05T17:40:40.634Z,3.84
2023-03-05T17:43:14.164Z,3.87
2023-03-05T17:45:43.486Z,3.87
2023-03-05T17:48:15.726Z,3.85
2023-03-05T17:50:45.660Z,3.83
2023-03-05T17:53:18.804Z,3.82
2023-03-05T17:55:48.549Z,3.80
2023-03-05T17:58:16.743Z,3.82
2023-03-05T18:00:49.281Z,3.79
2023-03-05T18:03:17.818Z,3.79
2023-03-05T18:05:46.520Z,3.75
2023-03-05T18:08:17.034Z,3.76
2023-03-05T18:10:45.734Z,3.71
2023-03-05T18:13:13.903Z,3.73
2023-03-05T18:15:48.198Z,3.70
2023-03-05T18:18:20.381Z,3.67
2023-03-05T18:20:49.883Z,3.66
2023-03-05T18:23:19.497Z,3.65
2023-03-05T18:25:48.190Z,3.64
2023-03-05T18:28:16.268Z,3.65
2023-03-05T18:30:45.592Z,3.65
2023-03-05T18:33:20.513Z,3.64
2023-03-05T18:35:54.084Z,3.64
2023-03-05T18:38:23.554Z,3.62
2023-03-05T18:40:53.278Z,3.64
2023-03-05T18:43:22.726Z,3.62
2023-03-05T18:45:52.693Z,3.62
2023-03-05T18:48:21.300Z,3.61
2023-03-05T18:50:53.954Z,3.61
2023-03-05T18:53:23.084Z,3.59
2023-03-05T18:55:53.368Z,3.57
2023-03-05T18:58:22.899Z,3.55
2023-03-05T19:00:52.833Z,3.57
2023-03-05T19:03:23.166Z,3.57
2023-03-05T19:05:53.570Z,3.60
2023-03-05T19:08:22.141Z,3.58
2023-03-05T19:10:53.021Z,3.56
2023-03-05T19:13:40.299Z,3.54
2023-03-05T19:16:11.519Z,3.54
2023-03-05T19:18:47.522Z,3.51
2023-03-05T19:21:15.901Z,3.50
2023-03-05T19:23:44.406Z,3.52
2023-03-05T19:26:14.309Z,3.52
2023-03-05T19:28:42.393Z,3.51
2023-03-05T19:31:10.846Z,3.52
2023-03-05T19:33:42.529Z,3.51
2023-03-05T19:36:12.725Z,3.47
2023-03-05T19:38:52.268Z,3.45
2023-03-05T19:41:23.559Z,3.46
2023-03-05T19:43:58.025Z,3.46
2023-03-05T19:46:26.755Z,3.46
2023-03-05T19:48:56.495Z,3.45
2023-03-05T19:51:26.779Z,3.47
2023-03-05T19:53:57.825Z,3.45
2023-03-05T19:56:27.003Z,3.47
2023-03-05T19:58:56.164Z,3.47
2023-03-05T20:01:27.478Z,3.45
2023-03-05T20:03:57.908Z,3.43
2023-03-05T20:06:29.146Z,3.41
2023-03-05T20:09:00.855Z,3.49
2023-03-05T20:11:34.520Z,3.45
2023-03-05T20:14:05.779Z,3.43
2023-03-05T20:16:39.630Z,3.42
2023-03-05T20:19:08.976Z,3.41
2023-03-05T20:21:40.269Z,3.38
2023-03-05T20:24:14.071Z,3.37
2023-03-05T20:26:43.925Z,3.35
2023-03-05T20:29:14.267Z,3.36
2023-03-05T20:31:48.659Z,3.34
2023-03-05T20:34:23.446Z,3.34
2023-03-05T20:36:52.701Z,3.34
2023-03-05T20:39:21.286Z,3.36
2023-03-05T20:41:49.912Z,3.34
2023-03-05T20:44:18.185Z,3.33
2023-03-05T20:46:59.681Z,3.33
2023-03-05T20:49:27.999Z,3.32
2023-03-05T20:52:00.547Z,3.31
2023-03-05T20:54:30.631Z,3.32
2023-03-05T20:56:59.905Z,3.30
2023-03-05T20:59:29.534Z,3.29
2023-03-05T21:01:59.035Z,3.28
2023-03-05T21:04:26.662Z,3.27
2023-03-05T21:06:54.773Z,3.27
2023-03-05T21:09:25.170Z,3.25
2023-03-05T21:11:53.678Z,3.24
2023-03-05T21:14:21.939Z,3.22
2023-03-05T21:16:51.232Z,3.20
2023-03-05T21:19:18.875Z,3.19
2023-03-05T21:21:46.828Z,3.18
2023-03-05T21:24:15.669Z,3.18
2023-03-05T21:26:43.700Z,3.17
2023-03-05T21:29:11.353Z,3.12
2023-03-05T21:31:39.912Z,3.11
2023-03-05T21:34:08.767Z,3.12
2023-03-05T21:36:37.362Z,3.10
2023-03-05T21:39:04.558Z,3.12
2023-03-05T21:41:32.678Z,3.12
2023-03-05T21:44:04.202Z,3.12
2023-03-05T21:46:31.769Z,3.09
2023-03-05T21:48:59.005Z,3.06
2023-03-05T21:51:33.940Z,3.05
2023-03-05T21:54:01.094Z,3.06
2023-03-05T21:56:31.155Z,3.05
2023-03-05T21:59:01.396Z,3.05
2023-03-05T22:01:29.361Z,3.02
2023-03-05T22:03:56.484Z,3.02
2023-03-05T22:06:23.857Z,3.00
2023-03-05T22:08:50.789Z,2.99
2023-03-05T22:11:19.284Z,2.98
2023-03-05T22:13:46.750Z,2.98
2023-03-05T22:16:21.357Z,2.97
2023-03-05T22:18:48.291Z,2.97
2023-03-05T22:21:20.301Z,2.99
2023-03-05T22:23:47.660Z,2.97
2023-03-05T22:26:15.119Z,2.97
2023-03-05T22:28:42.695Z,2.97
2023-03-05T22:31:10.528Z,2.97
2023-03-05T22:33:38.093Z,2.98
2023-03-05T22:36:09.903Z,2.96
2023-03-05T22:38:36.951Z,2.98
2023-03-05T22:41:07.288Z,2.96
2023-03-05T22:43:34.598Z,2.95
2023-03-05T22:46:08.839Z,2.95
2023-03-05T22:48:35.857Z,2.95
2023-03-05T22:51:03.114Z,2.94
2023-03-05T22:53:30.273Z,2.97
2023-03-05T22:55:57.834Z,2.97
2023-03-05T22:58:24.832Z,2.97
2023-03-05T23:00:52.051Z,2.97
2023-03-05T23:03:19.031Z,2.98
2023-03-05T23:05:46.561Z,3.01
2023-03-05T23:08:13.692Z,3.04
2023-03-05T23:10:40.985Z,3.03
2023-03-05T23:13:07.947Z,3.04
2023-03-05T23:15:36.668Z,3.06
2023-03-05T23:18:04.611Z,3.07
2023-03-05T23:20:33.202Z,3.08
2023-03-05T23:23:00.873Z,3.10
2023-03-05T23:25:30.016Z,3.13
2023-03-05T23:27:58.308Z,3.11
2023-03-05T23:30:26.966Z,3.08
2023-03-05T23:32:56.802Z,3.04
2023-03-05T23:35:25.992Z,3.02
2023-03-05T23:37:56.225Z,3.05
2023-03-05T23:40:24.821Z,3.07
2023-03-05T23:42:52.029Z,3.08
2023-03-05T23:45:22.565Z,3.08
2023-03-05T23:47:50.224Z,3.12
2023-03-05T23:50:30.579Z,3.21
2023-03-05T23:53:00.020Z,3.29
2023-03-05T23:55:33.691Z,3.33
2023-03-05T23:58:00.749Z,3.36
